Time;durP1;ratioP1;P1;durP2;ratioP2;P2;SDS_P1;SDS_P2;PMS_P1;PMS_P2;Temp;Humidity;BMP_temperature;BMP_pressure;BME280_temperature;BME280_humidity;BME280_pressure;Samples;Min_cycle;Max_cycle;Signal;HPM_P1;HPM_P2
2021/01/06 00:00:17;;;;;;;4.53;4.13;;;;;;;5.20;57.96;97379.84;8302598;28;20220;-78
2021/01/06 00:04:19;;;;;;;5.60;4.70;;;;;;;5.33;58.35;97370.03;8329839;28;20212;-79
2021/01/06 00:08:22;;;;;;;4.70;4.20;;;;;;;5.37;58.05;97383.56;8296072;28;20200;-78
2021/01/06 00:12:24;;;;;;;5.07;4.57;;;;;;;5.22;58.12;97383.19;8270789;28;20225;-78
2021/01/06 00:16:26;;;;;;;5.73;5.00;;;;;;;5.27;58.49;97383.03;8272021;28;20243;-78
2021/01/06 00:20:33;;;;;;;5.20;4.50;;;;;;;5.27;58.49;97390.72;8298376;28;20197;-79
2021/01/06 00:24:39;;;;;;;4.77;4.27;;;;;;;5.24;58.69;97383.97;8302905;28;20213;-78
2021/01/06 00:28:40;;;;;;;5.53;4.53;;;;;;;5.21;58.32;97372.97;8296493;28;20204;-78
2021/01/06 00:32:42;;;;;;;6.10;4.53;;;;;;;5.34;58.30;97381.13;8301978;28;20676;-78
2021/01/06 00:36:44;;;;;;;4.97;4.50;;;;;;;5.29;58.12;97376.97;8270118;28;20209;-79
2021/01/06 00:40:47;;;;;;;4.77;4.20;;;;;;;5.19;58.27;97367.06;8292154;28;20201;-78
2021/01/06 00:44:48;;;;;;;3.97;3.53;;;;;;;5.03;58.04;97362.41;8271478;28;20209;-78
2021/01/06 00:48:50;;;;;;;4.67;4.00;;;;;;;5.12;58.37;97351.00;8270336;28;20653;-78
2021/01/06 00:52:52;;;;;;;4.30;3.90;;;;;;;4.90;58.18;97351.69;8278623;28;20251;-79
2021/01/06 00:56:54;;;;;;;5.27;3.77;;;;;;;5.03;58.21;97362.41;8279966;28;20201;-78
2021/01/06 01:00:56;;;;;;;4.00;3.60;;;;;;;5.03;58.09;97357.28;8270762;28;20206;-78
2021/01/06 01:04:58;;;;;;;5.10;4.20;;;;;;;4.81;58.84;97363.97;8292854;28;20209;-79
2021/01/06 01:09:00;;;;;;;3.80;3.47;;;;;;;4.74;59.01;97358.19;8274090;28;20209;-78
2021/01/06 01:13:04;;;;;;;4.90;3.80;;;;;;;4.89;58.67;97360.28;8268513;28;20233;-79
2021/01/06 01:17:07;;;;;;;6.77;4.10;;;;;;;4.88;58.86;97368.03;8286077;28;20213;-78
2021/01/06 01:21:09;;;;;;;4.33;3.60;;;;;;;4.82;58.90;97371.63;8292078;28;20197;-78
2021/01/06 01:25:12;;;;;;;4.13;3.73;;;;;;;4.56;58.78;97372.41;8297262;28;20209;-78
2021/01/06 01:29:14;;;;;;;3.83;3.43;;;;;;;4.66;59.01;97358.44;8270049;28;20201;-78
2021/01/06 01:33:17;;;;;;;4.57;3.77;;;;;;;4.81;58.99;97364.78;8274037;28;20221;-79
2021/01/06 01:37:18;;;;;;;4.10;3.70;;;;;;;4.97;58.99;97375.44;8300431;28;20201;-79
2021/01/06 01:41:24;;;;;;;3.77;3.40;;;;;;;4.90;58.67;97371.38;8277252;28;20198;-78
2021/01/06 01:45:30;;;;;;;3.50;3.20;;;;;;;5.04;58.38;97373.50;8268514;28;20217;-79
2021/01/06 01:49:39;;;;;;;4.40;4.00;;;;;;;5.05;58.34;97364.94;8278993;28;20200;-78
2021/01/06 01:53:45;;;;;;;3.87;3.47;;;;;;;5.15;58.30;97363.72;8279476;28;20214;-77
2021/01/06 01:57:49;;;;;;;4.37;3.87;;;;;;;5.12;58.22;97371.53;8301479;28;20205;-78
2021/01/06 02:01:54;;;;;;;4.10;3.70;;;;;;;5.05;58.30;97365.75;8289631;28;20217;-78
2021/01/06 02:05:58;;;;;;;3.43;3.13;;;;;;;5.06;58.73;97367.47;8268046;28;20209;-78
2021/01/06 02:10:05;;;;;;;4.80;3.43;;;;;;;5.06;58.29;97369.16;8268440;28;20206;-79
2021/01/06 02:14:09;;;;;;;3.43;3.13;;;;;;;4.98;58.27;97360.88;8289951;28;20265;-78
2021/01/06 02:18:12;;;;;;;3.47;3.17;;;;;;;4.95;59.02;97359.25;8278700;28;20212;-79
2021/01/06 02:22:16;;;;;;;3.67;3.33;;;;;;;4.91;58.73;97349.94;8301689;28;20543;-78
2021/01/06 02:26:18;;;;;;;3.60;3.30;;;;;;;4.92;59.13;97359.34;8303407;28;20661;-79
2021/01/06 02:30:20;;;;;;;3.47;3.10;;;;;;;4.96;58.61;97353.22;8275878;28;20329;-78
2021/01/06 02:34:22;;;;;;;3.43;3.10;;;;;;;4.91;58.88;97347.38;8278176;28;20321;-78
2021/01/06 02:38:25;;;;;;;3.03;2.83;;;;;;;4.89;59.04;97351.72;8275752;28;20206;-78
2021/01/06 02:42:27;;;;;;;3.43;2.93;;;;;;;4.98;58.46;97356.56;8275808;28;20205;-78
2021/01/06 02:46:29;;;;;;;3.77;3.00;;;;;;;5.03;58.69;97348.75;8305100;28;20581;-78
2021/01/06 02:50:33;;;;;;;3.30;3.00;;;;;;;5.00;58.29;97344.53;8298198;28;20198;-78
2021/01/06 02:54:37;;;;;;;3.40;3.10;;;;;;;5.00;58.66;97341.13;8273734;28;20686;-78
2021/01/06 02:58:39;;;;;;;3.20;2.90;;;;;;;4.93;59.04;97342.22;8288788;28;20588;-78
2021/01/06 03:02:41;;;;;;;3.27;2.97;;;;;;;4.96;58.68;97339.56;8295672;28;20201;-78
2021/01/06 03:06:47;;;;;;;3.20;2.73;;;;;;;5.04;58.62;97347.84;8298860;28;20212;-78
2021/01/06 03:10:50;;;;;;;3.70;3.10;;;;;;;4.93;59.03;97343.06;8302794;28;20712;-78
2021/01/06 03:14:52;;;;;;;3.03;2.77;;;;;;;4.94;59.38;97336.19;8275098;28;20693;-78
2021/01/06 03:18:56;;;;;;;3.40;2.80;;;;;;;5.00;59.07;97326.56;8301392;28;20263;-78
2021/01/06 03:23:03;;;;;;;2.83;2.60;;;;;;;5.02;58.92;97327.34;8303791;28;20201;-78
2021/01/06 03:27:06;;;;;;;3.50;2.83;;;;;;;4.99;59.18;97329.19;8303240;28;20206;-78
2021/01/06 03:31:16;;;;;;;4.03;2.80;;;;;;;5.00;59.44;97323.16;8303844;28;20645;-78
2021/01/06 03:35:23;;;;;;;2.80;2.57;;;;;;;5.05;59.35;97324.69;8302863;28;20224;-78
2021/01/06 03:39:28;;;;;;;2.60;2.40;;;;;;;4.84;59.44;97323.66;8303621;28;20185;-77
2021/01/06 03:43:32;;;;;;;2.77;2.57;;;;;;;4.98;59.28;97324.94;8303018;28;20224;-78
2021/01/06 03:47:37;;;;;;;2.90;2.70;;;;;;;4.91;59.07;97321.72;8304070;28;20573;-78
2021/01/06 03:51:41;;;;;;;3.03;2.73;;;;;;;4.97;59.46;97320.69;8302761;28;20555;-78
2021/01/06 03:55:52;;;;;;;2.83;2.60;;;;;;;5.00;59.45;97315.47;8302980;28;20236;-78
2021/01/06 03:59:56;;;;;;;3.07;2.67;;;;;;;5.00;59.31;97318.88;8302539;28;20616;-78
2021/01/06 04:04:05;;;;;;;2.97;2.67;;;;;;;4.87;59.70;97303.06;8302553;28;20547;-77
2021/01/06 04:08:09;;;;;;;3.10;2.80;;;;;;;4.96;59.41;97301.91;8302188;28;20198;-77
2021/01/06 04:12:13;;;;;;;3.00;2.70;;;;;;;4.93;59.63;97298.59;8302720;28;20243;-78
2021/01/06 04:16:16;;;;;;;2.60;2.40;;;;;;;4.90;59.70;97302.94;8301680;28;20236;-78
2021/01/06 04:20:29;;;;;;;3.00;2.73;;;;;;;4.91;59.87;97308.91;8301705;28;20224;-78
2021/01/06 04:24:30;;;;;;;2.70;2.50;;;;;;;4.94;60.29;97302.84;8302266;28;20201;-79
2021/01/06 04:28:36;;;;;;;2.70;2.50;;;;;;;4.98;60.09;97296.72;8301409;28;20211;-78
2021/01/06 04:32:38;;;;;;;2.63;2.43;;;;;;;4.97;60.20;97295.03;8301590;28;20221;-79
2021/01/06 04:36:40;;;;;;;2.70;2.50;;;;;;;4.80;60.53;97290.47;8301533;28;20224;-78
2021/01/06 04:40:43;;;;;;;2.93;2.73;;;;;;;4.86;60.14;97293.66;8301251;28;20200;-78
2021/01/06 04:44:53;;;;;;;2.77;2.57;;;;;;;4.83;60.45;97287.78;8300803;28;20244;-78
2021/01/06 04:49:00;;;;;;;3.10;2.70;;;;;;;4.89;60.62;97285.88;8301945;28;20201;-78
2021/01/06 04:53:11;;;;;;;2.77;2.50;;;;;;;4.77;60.61;97293.13;8303035;28;20228;-79
2021/01/06 04:57:25;;;;;;;2.73;2.53;;;;;;;4.85;60.59;97286.84;8300154;28;20691;-78
2021/01/06 05:01:40;;;;;;;2.70;2.50;;;;;;;4.89;60.49;97296.13;8299768;28;20212;-78
2021/01/06 05:05:54;;;;;;;2.80;2.60;;;;;;;4.75;60.63;97289.75;8301478;28;20648;-79
2021/01/06 05:10:01;;;;;;;2.67;2.47;;;;;;;4.83;60.59;97293.75;8301301;28;20205;-79
2021/01/06 05:14:05;;;;;;;2.47;2.27;;;;;;;4.68;60.61;97297.66;8301040;28;20572;-78
2021/01/06 05:18:08;;;;;;;2.50;2.30;;;;;;;4.81;60.77;97289.56;8304409;28;20209;-79
2021/01/06 05:22:12;;;;;;;2.53;2.33;;;;;;;4.83;60.45;97292.91;8305751;28;20255;-79
2021/01/06 05:26:17;;;;;;;2.57;2.37;;;;;;;4.73;60.93;97296.66;8302421;28;20239;-78
2021/01/06 05:30:21;;;;;;;2.80;2.60;;;;;;;4.76;60.63;97302.56;8300920;28;20244;-78
2021/01/06 05:34:24;;;;;;;3.47;2.77;;;;;;;4.86;60.64;97293.66;8299536;28;20228;-78
2021/01/06 05:38:26;;;;;;;3.07;2.77;;;;;;;4.84;60.42;97302.31;8300467;28;20201;-78
2021/01/06 05:42:34;;;;;;;2.97;2.73;;;;;;;4.75;60.88;97292.34;8300188;28;20586;-78
2021/01/06 05:46:35;;;;;;;3.43;2.83;;;;;;;4.74;61.07;97294.06;8300525;28;20190;-78
2021/01/06 05:50:39;;;;;;;3.37;3.07;;;;;;;4.68;61.06;97294.22;8299848;28;20211;-78
2021/01/06 05:54:44;;;;;;;3.43;3.13;;;;;;;4.75;60.72;97295.72;8300203;28;20237;-79
2021/01/06 05:58:49;;;;;;;3.30;3.00;;;;;;;4.78;60.56;97305.91;8302818;28;20196;-78
2021/01/06 06:03:02;;;;;;;3.03;2.83;;;;;;;4.89;60.71;97295.28;8306197;28;20617;-79
2021/01/06 06:07:24;;;;;;;3.20;2.97;;;;;;;4.80;60.63;97301.56;8308544;28;20201;-79
2021/01/06 06:11:52;;;;;;;3.50;3.20;;;;;;;4.97;60.35;97308.72;8312200;28;20225;-80
2021/01/06 06:16:18;;;;;;;3.90;3.60;;;;;;;4.96;60.39;97301.91;8314417;28;20668;-79
2021/01/06 06:20:32;;;;;;;3.53;3.23;;;;;;;4.96;60.70;97294.19;8314460;28;20247;-79
2021/01/06 06:24:38;;;;;;;3.70;3.40;;;;;;;4.97;60.74;97305.28;8309639;28;20205;-79
2021/01/06 06:28:43;;;;;;;3.97;3.67;;;;;;;4.98;60.42;97296.72;8307094;28;20197;-78
2021/01/06 06:32:48;;;;;;;3.60;3.30;;;;;;;4.98;60.63;97300.13;8305542;28;20259;-78
2021/01/06 06:36:50;;;;;;;3.13;2.93;;;;;;;4.93;61.03;97296.88;8305698;28;20628;-78
2021/01/06 06:40:56;;;;;;;4.13;3.83;;;;;;;4.91;60.83;97308.91;8305237;28;20606;-78
2021/01/06 06:45:01;;;;;;;4.13;3.80;;;;;;;5.02;60.58;97308.56;8305215;28;20212;-78
2021/01/06 06:49:20;;;;;;;3.97;3.57;;;;;;;4.94;60.73;97305.41;8305159;28;20205;-78
2021/01/06 06:53:30;;;;;;;4.40;4.00;;;;;;;5.09;60.29;97303.16;8304455;28;20225;-78
2021/01/06 06:57:36;;;;;;;4.57;4.17;;;;;;;4.94;61.07;97305.41;8304843;28;20693;-78
2021/01/06 07:01:41;;;;;;;4.10;3.80;;;;;;;4.85;60.66;97306.53;8304458;28;20208;-78
2021/01/06 07:05:46;;;;;;;4.37;3.97;;;;;;;4.94;60.95;97307.97;8305979;28;20216;-78
2021/01/06 07:09:50;;;;;;;4.50;4.10;;;;;;;4.93;60.72;97317.41;8305812;28;20216;-78
2021/01/06 07:13:57;;;;;;;4.40;4.00;;;;;;;4.98;60.63;97318.06;8304330;28;20237;-78
2021/01/06 07:18:21;;;;;;;4.47;4.07;;;;;;;5.01;60.50;97312.84;8306375;28;20228;-78
2021/01/06 07:22:34;;;;;;;4.70;3.70;;;;;;;4.99;60.71;97321.47;8305126;28;20194;-79
2021/01/06 07:26:41;;;;;;;4.00;3.70;;;;;;;4.97;60.63;97323.25;8306363;28;20185;-79
2021/01/06 07:30:45;;;;;;;4.67;4.27;;;;;;;4.80;61.16;97326.38;8303603;28;20205;-79
2021/01/06 07:34:51;;;;;;;4.33;4.00;;;;;;;4.96;60.78;97326.72;8302703;28;20677;-78
2021/01/06 07:38:53;;;;;;;4.97;4.57;;;;;;;4.98;61.24;97318.06;8304680;28;20201;-78
2021/01/06 07:43:16;;;;;;;5.30;4.80;;;;;;;5.05;60.99;97329.00;8303437;28;20208;-78
2021/01/06 07:47:19;;;;;;;7.30;6.43;;;;;;;5.01;61.38;97333.38;8304129;28;20189;-79
2021/01/06 07:51:34;;;;;;;5.73;5.13;;;;;;;5.07;61.15;97324.66;8303576;28;20534;-78
2021/01/06 07:55:40;;;;;;;5.33;4.87;;;;;;;4.94;61.32;97326.78;8304243;28;20645;-78
2021/01/06 07:59:49;;;;;;;6.03;5.43;;;;;;;4.83;61.91;97334.78;8303723;28;20198;-78
2021/01/06 08:03:56;;;;;;;5.77;5.17;;;;;;;4.95;61.71;97337.88;8308610;28;20194;-79
2021/01/06 08:08:07;;;;;;;5.60;5.10;;;;;;;4.92;61.73;97332.84;8309148;28;20186;-78
2021/01/06 08:12:21;;;;;;;5.20;4.60;;;;;;;4.81;62.09;97333.19;8303068;28;20218;-78
2021/01/06 08:16:32;;;;;;;5.93;5.33;;;;;;;4.91;61.99;97334.56;8303123;28;20592;-79
2021/01/06 08:20:35;;;;;;;5.40;5.00;;;;;;;5.00;62.34;97341.13;8304271;28;20201;-79
2021/01/06 08:24:41;;;;;;;5.77;5.27;;;;;;;5.04;61.88;97342.72;8304999;28;20209;-79
2021/01/06 08:28:43;;;;;;;6.67;6.07;;;;;;;4.96;62.58;97342.94;8308935;28;20192;-79
2021/01/06 08:32:46;;;;;;;7.27;6.57;;;;;;;5.03;62.04;97336.75;8308694;28;20212;-81
2021/01/06 08:36:54;;;;;;;7.00;6.37;;;;;;;4.99;62.30;97344.56;8307891;28;20641;-79
2021/01/06 08:41:14;;;;;;;7.30;6.53;;;;;;;5.05;61.90;97340.09;8302299;28;20190;-78
2021/01/06 08:45:20;;;;;;;6.40;5.80;;;;;;;4.97;62.80;97338.66;8303128;28;20538;-79
2021/01/06 08:49:24;;;;;;;6.30;5.70;;;;;;;4.97;62.56;97336.09;8302501;28;20190;-79
2021/01/06 08:53:30;;;;;;;7.83;7.03;;;;;;;5.11;62.45;97340.81;8301890;28;20681;-79
2021/01/06 08:57:35;;;;;;;6.97;6.37;;;;;;;5.03;62.55;97341.88;8301943;28;20213;-79
2021/01/06 09:01:42;;;;;;;5.90;5.37;;;;;;;5.05;62.80;97345.22;8303163;28;20189;-79
2021/01/06 09:05:48;;;;;;;7.87;7.07;;;;;;;5.17;62.46;97343.16;8304353;28;20198;-80
2021/01/06 09:10:04;;;;;;;8.40;7.60;;;;;;;5.08;62.76;97349.41;8308274;28;20268;-80
2021/01/06 09:14:12;;;;;;;9.93;8.93;;;;;;;5.07;62.74;97350.31;8306599;28;20241;-81
2021/01/06 09:18:17;;;;;;;8.73;7.93;;;;;;;5.04;62.62;97355.53;8309565;28;20193;-80
2021/01/06 09:22:20;;;;;;;11.03;9.83;;;;;;;5.11;62.57;97356.19;8310738;28;20204;-80
2021/01/06 09:26:25;;;;;;;10.17;9.10;;;;;;;5.11;62.47;97351.91;8324471;28;20347;-81
2021/01/06 09:30:34;;;;;;;13.07;9.47;;;;;;;5.04;62.61;97365.81;8305216;28;20197;-80
2021/01/06 09:34:40;;;;;;;8.47;7.57;;;;;;;5.11;62.71;97361.34;8306003;28;20229;-80
2021/01/06 09:38:45;;;;;;;8.00;7.30;;;;;;;4.98;62.98;97366.00;8307112;28;20205;-80
2021/01/06 09:42:52;;;;;;;8.70;7.33;;;;;;;5.10;62.71;97363.03;8306183;28;20288;-79
2021/01/06 09:46:57;;;;;;;8.13;7.43;;;;;;;5.16;62.83;97368.00;8305439;28;20205;-78
2021/01/06 09:51:01;;;;;;;9.53;7.10;;;;;;;5.16;62.61;97367.13;8301388;28;20197;-78
2021/01/06 09:55:05;;;;;;;6.60;6.00;;;;;;;5.17;62.91;97363.69;8305542;28;20227;-80
2021/01/06 09:59:18;;;;;;;7.30;6.60;;;;;;;5.21;62.67;97367.84;8308495;28;20224;-80
2021/01/06 10:03:20;;;;;;;6.50;5.90;;;;;;;5.20;62.80;97366.19;8304888;28;20571;-78
2021/01/06 10:07:31;;;;;;;8.87;5.53;;;;;;;5.16;63.11;97356.88;8307436;28;20208;-79
2021/01/06 10:11:46;;;;;;;6.70;6.07;;;;;;;5.13;62.89;97362.94;8306947;28;20232;-80
2021/01/06 10:15:55;;;;;;;7.40;6.67;;;;;;;5.28;62.68;97362.44;8302788;28;20233;-79
2021/01/06 10:20:06;;;;;;;7.90;7.20;;;;;;;5.26;62.95;97356.53;8308888;28;20198;-80
2021/01/06 10:24:20;;;;;;;7.53;6.80;;;;;;;5.16;62.83;97357.72;8309383;28;20276;-80
2021/01/06 10:28:34;;;;;;;6.40;5.80;;;;;;;5.08;63.57;97352.84;8307350;28;20193;-79
2021/01/06 10:32:46;;;;;;;6.57;5.97;;;;;;;5.37;62.67;97347.63;8307430;28;20209;-80
2021/01/06 10:37:11;;;;;;;6.87;6.27;;;;;;;5.28;63.18;97351.34;8301372;28;20217;-79
2021/01/06 10:41:24;;;;;;;6.20;5.60;;;;;;;5.18;63.53;97339.69;8310042;28;20771;-80
2021/01/06 10:45:47;;;;;;;7.00;6.30;;;;;;;5.36;63.16;97339.09;8312859;28;20209;-79
2021/01/06 10:49:55;;;;;;;6.97;6.20;;;;;;;5.42;63.12;97335.47;8287835;28;20197;-80
2021/01/06 10:54:02;;;;;;;6.70;6.10;;;;;;;5.46;63.14;97337.03;8314833;28;20224;-80
2021/01/06 10:58:11;;;;;;;6.40;5.80;;;;;;;5.31;63.08;97327.28;8314920;28;20193;-80
2021/01/06 11:02:22;;;;;;;7.60;6.90;;;;;;;5.39;62.74;97330.47;8315998;28;20194;-80
2021/01/06 11:06:27;;;;;;;7.27;6.57;;;;;;;5.23;63.05;97318.09;8311740;28;20197;-79
2021/01/06 11:10:52;;;;;;;7.30;6.50;;;;;;;5.40;63.14;97322.69;8312228;28;20563;-79
2021/01/06 11:15:04;;;;;;;6.73;6.00;;;;;;;5.38;62.68;97319.34;8304298;28;20233;-78
2021/01/06 11:19:36;;;;;;;6.30;5.67;;;;;;;5.33;63.33;97322.94;8309004;28;20190;-79
2021/01/06 11:23:58;;;;;;;7.40;6.70;;;;;;;5.45;62.98;97313.09;8309590;28;20213;-79
2021/01/06 11:28:26;;;;;;;7.97;5.87;;;;;;;5.39;62.98;97320.19;8308991;28;20197;-79
2021/01/06 11:32:35;;;;;;;6.33;5.73;;;;;;;5.34;63.19;97328.03;8308671;28;20298;-79
2021/01/06 11:36:45;;;;;;;5.93;5.43;;;;;;;5.41;63.12;97321.81;8315300;28;20611;-78
2021/01/06 11:40:56;;;;;;;6.13;5.53;;;;;;;5.42;63.03;97322.63;8311576;28;20209;-80
2021/01/06 11:45:09;;;;;;;5.77;5.27;;;;;;;5.40;63.36;97317.53;8308759;28;20205;-80
2021/01/06 11:49:23;;;;;;;5.87;5.27;;;;;;;5.39;63.56;97309.91;8310866;28;20225;-79
2021/01/06 11:53:27;;;;;;;5.83;5.30;;;;;;;5.30;63.42;97311.06;8310449;28;20205;-79
2021/01/06 11:57:41;;;;;;;5.60;5.10;;;;;;;5.50;63.00;97307.78;8308346;28;20220;-79
2021/01/06 12:02:04;;;;;;;5.50;5.00;;;;;;;5.60;63.23;97298.91;8312978;28;20205;-79
2021/01/06 12:06:09;;;;;;;6.13;5.53;;;;;;;5.43;63.44;97293.50;8313490;28;20220;-78
2021/01/06 12:10:22;;;;;;;6.40;5.80;;;;;;;5.56;63.18;97288.75;8312728;28;20201;-79
2021/01/06 12:14:29;;;;;;;6.47;5.87;;;;;;;5.59;63.41;97296.38;8313183;28;20248;-80
2021/01/06 12:19:01;;;;;;;6.70;6.00;;;;;;;5.66;63.39;97292.72;8313874;28;20263;-81
2021/01/06 12:23:34;;;;;;;5.80;5.20;;;;;;;5.62;63.40;97293.72;8313588;28;20204;-78
2021/01/06 12:27:59;;;;;;;7.93;6.27;;;;;;;5.70;63.38;97294.28;8306727;28;20205;-79
2021/01/06 12:32:11;;;;;;;7.27;5.80;;;;;;;5.71;63.73;97293.34;8303433;28;20193;-80
2021/01/06 12:36:27;;;;;;;6.20;5.60;;;;;;;5.65;63.82;97291.88;8313349;28;20221;-80
2021/01/06 12:40:29;;;;;;;6.33;5.70;;;;;;;5.68;63.53;97298.63;8289367;28;20209;-80
2021/01/06 12:44:34;;;;;;;8.70;7.33;;;;;;;5.68;64.06;97290.91;8309109;28;20201;-79
2021/01/06 12:49:14;;;;;;;7.97;5.63;;;;;;;5.79;63.74;97293.13;8310422;28;20194;-80
2021/01/06 12:53:20;;;;;;;6.77;6.07;;;;;;;5.84;63.32;97289.47;8312773;28;20563;-79
2021/01/06 12:57:25;;;;;;;6.57;5.87;;;;;;;5.72;63.79;97289.91;8313292;28;20598;-79
2021/01/06 13:01:33;;;;;;;6.20;5.60;;;;;;;5.81;63.52;97294.72;8307266;28;20687;-79
2021/01/06 13:05:35;;;;;;;6.93;6.10;;;;;;;5.63;63.74;97292.81;8307859;28;20194;-79
2021/01/06 13:09:41;;;;;;;6.20;5.60;;;;;;;5.54;63.80;97300.81;8306300;28;20208;-79
2021/01/06 13:13:45;;;;;;;6.87;5.77;;;;;;;5.70;63.61;97301.16;8310722;28;20635;-79
2021/01/06 13:17:58;;;;;;;6.60;5.90;;;;;;;5.71;63.45;97303.63;8310952;28;20224;-78
2021/01/06 13:22:24;;;;;;;8.97;6.73;;;;;;;5.71;63.23;97306.19;8312336;28;20194;-79
2021/01/06 13:26:39;;;;;;;8.90;6.73;;;;;;;5.64;63.33;97305.59;8310509;28;20205;-79
2021/01/06 13:30:48;;;;;;;5.90;5.30;;;;;;;5.57;63.87;97304.13;8314988;28;20213;-79
2021/01/06 13:34:53;;;;;;;6.97;5.97;;;;;;;5.70;63.28;97311.41;8308861;28;20213;-78
2021/01/06 13:39:01;;;;;;;5.80;5.23;;;;;;;5.63;63.46;97310.78;8307236;28;20197;-77
2021/01/06 13:43:15;;;;;;;5.83;5.07;;;;;;;5.68;63.12;97307.16;8306122;28;20569;-78
2021/01/06 13:47:20;;;;;;;5.37;4.80;;;;;;;5.59;64.10;97315.19;8306185;28;20200;-77
2021/01/06 13:51:26;;;;;;;6.03;5.40;;;;;;;5.56;63.95;97317.00;8304529;28;20216;-77
2021/01/06 13:55:38;;;;;;;6.00;4.97;;;;;;;5.71;63.42;97321.63;8301791;28;20264;-77
2021/01/06 13:59:46;;;;;;;6.27;5.67;;;;;;;5.70;63.74;97321.69;8301096;28;20189;-77
2021/01/06 14:03:52;;;;;;;6.10;5.50;;;;;;;5.68;64.14;97325.16;8301018;28;20205;-78
2021/01/06 14:08:09;;;;;;;6.17;5.07;;;;;;;5.68;63.86;97324.31;8301328;28;20198;-77
2021/01/06 14:12:42;;;;;;;5.77;5.20;;;;;;;5.74;63.73;97328.41;8300814;28;20576;-77
2021/01/06 14:16:54;;;;;;;25.70;8.70;;;;;;;8.65;85.01;97325.19;8297723;28;20240;-81
2021/01/06 14:21:08;;;;;;;18.80;5.77;;;;;;;9.74;66.05;97332.75;8321888;28;20220;-80
2021/01/06 14:25:31;;;;;;;5.97;5.37;;;;;;;7.76;57.00;97334.28;8314972;28;20185;-77
2021/01/06 14:29:42;;;;;;;6.30;5.70;;;;;;;7.02;60.07;97332.19;8293069;28;20193;-77
2021/01/06 14:33:48;;;;;;;6.13;5.47;;;;;;;6.84;60.78;97338.94;8292640;28;20225;-78
2021/01/06 14:38:03;;;;;;;6.63;5.93;;;;;;;6.47;60.96;97342.91;8290591;28;20189;-78
2021/01/06 14:42:16;;;;;;;6.23;5.63;;;;;;;6.29;61.70;97341.03;8289678;28;20205;-78
2021/01/06 14:46:29;;;;;;;6.80;5.97;;;;;;;6.20;61.68;97332.75;8293258;28;20244;-78
2021/01/06 14:50:40;;;;;;;7.47;6.17;;;;;;;6.13;62.45;97335.59;8291219;28;20208;-78
2021/01/06 14:54:55;;;;;;;5.97;5.37;;;;;;;5.84;62.44;97343.41;8297024;28;20228;-78
2021/01/06 14:59:25;;;;;;;5.87;5.27;;;;;;;5.70;62.81;97339.69;8282584;28;20641;-78
2021/01/06 15:03:46;;;;;;;6.33;5.43;;;;;;;5.74;62.84;97344.66;8269374;28;20209;-78
2021/01/06 15:08:01;;;;;;;7.00;6.10;;;;;;;5.87;62.69;97347.63;8266332;28;20221;-78
2021/01/06 15:12:11;;;;;;;6.53;5.93;;;;;;;5.76;63.59;97350.56;8273717;28;20225;-78
2021/01/06 15:16:17;;;;;;;7.33;6.53;;;;;;;5.81;63.12;97347.84;8272775;28;20234;-78
2021/01/06 15:20:23;;;;;;;8.23;7.17;;;;;;;5.65;63.33;97350.09;8273808;28;20233;-78
2021/01/06 15:24:29;;;;;;;8.17;7.37;;;;;;;5.67;63.33;97346.59;8273708;28;20206;-78
2021/01/06 15:28:35;;;;;;;8.83;7.37;;;;;;;5.70;63.56;97345.66;8272992;28;20206;-78
2021/01/06 15:32:46;;;;;;;9.07;7.43;;;;;;;5.73;63.10;97353.25;8282894;28;20197;-78
2021/01/06 15:36:48;;;;;;;8.20;7.20;;;;;;;5.63;63.74;97346.75;8296497;28;20259;-78
2021/01/06 15:40:52;;;;;;;7.93;7.13;;;;;;;5.67;63.23;97349.19;8295029;28;20201;-78
2021/01/06 15:44:57;;;;;;;8.43;6.90;;;;;;;5.64;63.40;97356.16;8295654;28;20205;-78
2021/01/06 15:49:02;;;;;;;7.37;6.47;;;;;;;5.66;63.56;97354.38;8300932;28;20193;-77
2021/01/06 15:53:11;;;;;;;8.30;7.40;;;;;;;5.64;63.39;97349.28;8303371;28;20559;-78
2021/01/06 15:57:16;;;;;;;8.83;7.93;;;;;;;5.67;63.48;97344.03;8307593;28;20229;-78
2021/01/06 16:01:19;;;;;;;32.93;29.33;;;;;;;5.27;64.37;97347.94;8304997;28;20221;-78
2021/01/06 16:05:23;;;;;;;17.67;15.93;;;;;;;5.50;63.66;97343.75;8303752;28;20223;-79
2021/01/06 16:09:27;;;;;;;12.93;9.50;;;;;;;5.62;64.15;97352.78;8303277;28;20645;-78
2021/01/06 16:13:31;;;;;;;10.00;9.00;;;;;;;5.47;63.67;97356.72;8303760;28;20703;-78
2021/01/06 16:17:39;;;;;;;10.03;9.07;;;;;;;5.54;63.41;97359.91;8302653;28;20676;-78
2021/01/06 16:21:42;;;;;;;10.13;9.17;;;;;;;5.31;63.47;97355.53;8301338;28;20197;-78
2021/01/06 16:25:45;;;;;;;9.50;8.70;;;;;;;5.44;63.70;97362.78;8302450;28;20622;-78
2021/01/06 16:29:51;;;;;;;9.43;8.63;;;;;;;5.36;63.82;97366.50;8297101;28;20579;-78
2021/01/06 16:33:54;;;;;;;10.03;9.03;;;;;;;5.37;63.77;97369.03;8300851;28;20208;-78
2021/01/06 16:38:02;;;;;;;10.93;9.77;;;;;;;5.32;64.05;97372.63;8289101;28;20259;-78
2021/01/06 16:42:06;;;;;;;10.17;9.03;;;;;;;5.39;63.72;97379.25;8307225;28;20640;-78
2021/01/06 16:46:16;;;;;;;10.30;9.30;;;;;;;5.42;63.69;97379.97;8304953;28;20201;-78
2021/01/06 16:50:25;;;;;;;11.07;9.87;;;;;;;5.38;63.53;97383.53;8283919;28;20545;-78
2021/01/06 16:54:28;;;;;;;10.03;9.07;;;;;;;5.39;64.00;97381.81;8270640;28;20237;-78
2021/01/06 16:58:31;;;;;;;10.87;9.83;;;;;;;5.39;63.86;97385.22;8302683;28;20193;-78
2021/01/06 17:02:33;;;;;;;11.93;10.50;;;;;;;5.46;63.82;97381.56;8303571;28;20209;-78
2021/01/06 17:06:37;;;;;;;11.03;9.93;;;;;;;5.36;63.99;97389.59;8302942;28;20212;-78
2021/01/06 17:10:40;;;;;;;12.83;11.47;;;;;;;5.48;63.42;97387.50;8303217;28;20224;-78
2021/01/06 17:14:42;;;;;;;15.70;14.10;;;;;;;5.47;63.94;97395.25;8303161;28;20245;-78
2021/01/06 17:18:50;;;;;;;12.60;11.40;;;;;;;5.42;63.62;97397.94;8302218;28;20571;-79
2021/01/06 17:23:03;;;;;;;11.50;10.40;;;;;;;5.28;64.02;97395.00;8302506;28;20197;-77
2021/01/06 17:27:07;;;;;;;10.20;9.20;;;;;;;5.37;63.75;97393.84;8303452;28;20216;-79
2021/01/06 17:31:18;;;;;;;13.73;11.37;;;;;;;5.45;63.83;97394.44;8303539;28;20212;-78
2021/01/06 17:35:23;;;;;;;12.73;11.40;;;;;;;5.42;64.20;97397.09;8303297;28;20229;-78
2021/01/06 17:39:35;;;;;;;14.50;11.87;;;;;;;5.46;64.83;97396.13;8305586;28;20294;-78
2021/01/06 17:43:36;;;;;;;13.90;11.97;;;;;;;5.44;63.90;97413.31;8303621;28;20276;-77
2021/01/06 17:47:39;;;;;;;15.07;12.30;;;;;;;5.43;64.00;97409.06;8302065;28;20625;-77
2021/01/06 17:51:41;;;;;;;15.90;14.20;;;;;;;5.39;63.86;97407.50;8301705;28;20197;-78
2021/01/06 17:55:46;;;;;;;11.50;10.40;;;;;;;5.36;64.05;97415.28;8312905;28;20236;-79
2021/01/06 17:59:49;;;;;;;10.30;9.30;;;;;;;5.26;64.31;97414.75;8305089;28;20674;-78
2021/01/06 18:03:55;;;;;;;10.07;9.07;;;;;;;5.35;64.33;97411.03;8314285;28;20229;-77
2021/01/06 18:08:03;;;;;;;10.30;9.30;;;;;;;5.35;64.10;97417.03;8310828;28;20201;-78
2021/01/06 18:12:09;;;;;;;10.50;9.50;;;;;;;5.31;64.25;97422.28;8308454;28;20232;-76
2021/01/06 18:16:19;;;;;;;9.20;8.30;;;;;;;5.24;64.24;97419.94;8293503;28;20245;-78
2021/01/06 18:20:32;;;;;;;9.40;8.50;;;;;;;5.28;64.63;97420.66;8309280;28;20201;-78
2021/01/06 18:24:34;;;;;;;13.90;9.63;;;;;;;5.23;64.54;97417.41;8310286;28;20691;-78
2021/01/06 18:28:37;;;;;;;11.40;10.20;;;;;;;5.26;64.72;97425.84;8310825;28;20575;-77
2021/01/06 18:32:40;;;;;;;28.20;9.50;;;;;;;8.20;90.92;97424.34;8320527;28;20247;-81
2021/01/06 18:36:44;;;;;;;11.57;8.73;;;;;;;9.24;65.42;97421.41;8293346;28;20226;-80
2021/01/06 18:40:46;;;;;;;13.03;9.50;;;;;;;9.75;57.65;97421.53;8291106;28;20236;-80
2021/01/06 18:44:49;;;;;;;12.77;11.40;;;;;;;7.54;57.91;97430.56;8277069;28;20217;-78
2021/01/06 18:48:50;;;;;;;13.03;11.83;;;;;;;6.77;59.51;97430.97;8275594;28;20233;-78
2021/01/06 18:52:53;;;;;;;13.07;11.77;;;;;;;6.43;60.81;97429.63;8275075;28;20543;-78
2021/01/06 18:57:07;;;;;;;12.33;11.13;;;;;;;6.33;61.07;97441.16;8275880;28;20233;-78
2021/01/06 19:01:13;;;;;;;15.43;13.10;;;;;;;6.15;62.00;97446.94;8302424;28;20235;-79
2021/01/06 19:05:19;;;;;;;15.93;14.23;;;;;;;5.92;62.10;97442.56;8309391;28;20267;-79
2021/01/06 19:09:28;;;;;;;14.23;12.43;;;;;;;5.88;62.41;97444.38;8316066;28;20205;-79
2021/01/06 19:13:30;;;;;;;13.50;12.10;;;;;;;5.76;62.95;97443.06;8308841;28;20225;-80
2021/01/06 19:17:32;;;;;;;14.27;12.27;;;;;;;5.81;62.62;97448.91;8309517;28;20209;-78
2021/01/06 19:21:39;;;;;;;15.83;11.27;;;;;;;5.71;63.33;97451.81;8306516;28;20228;-78
2021/01/06 19:25:44;;;;;;;12.13;10.93;;;;;;;5.71;62.99;97452.66;8307995;28;20201;-79
2021/01/06 19:29:56;;;;;;;10.27;9.17;;;;;;;5.62;63.47;97464.09;8312742;28;20228;-78
2021/01/06 19:33:58;;;;;;;11.40;10.30;;;;;;;5.59;63.58;97469.31;8306959;28;20224;-79